createdAt,value
2022-11-05T00:01:35.970Z,21.24
2022-11-05T00:04:21.252Z,21.25
2022-11-05T00:07:05.990Z,21.23
2022-11-05T00:09:32.700Z,21.23
2022-11-05T00:12:17.770Z,21.23
2022-11-05T00:15:03.046Z,21.21
2022-11-05T00:17:29.364Z,21.22
2022-11-05T00:19:55.689Z,21.21
2022-11-05T00:22:40.392Z,21.20
2022-11-05T00:25:16.857Z,21.19
2022-11-05T00:27:44.154Z,21.21
2022-11-05T00:30:11.273Z,21.20
2022-11-05T00:32:37.887Z,21.20
2022-11-05T00:35:05.873Z,21.20
2022-11-05T00:37:32.331Z,21.20
2022-11-05T00:39:58.668Z,21.19
2022-11-05T00:42:43.849Z,21.18
2022-11-05T00:45:10.196Z,21.19
2022-11-05T00:47:55.193Z,21.18
2022-11-05T00:50:21.782Z,21.18
2022-11-05T00:52:56.476Z,21.19
2022-11-05T00:55:25.859Z,21.17
2022-11-05T00:57:52.204Z,21.18
2022-11-05T01:00:18.560Z,21.16
2022-11-05T01:02:45.031Z,21.16
2022-11-05T01:05:11.477Z,21.16
2022-11-05T01:07:37.792Z,21.15
2022-11-05T01:10:04.151Z,21.14
2022-11-05T01:12:30.906Z,21.16
2022-11-05T01:14:57.224Z,21.15
2022-11-05T01:17:23.533Z,21.15
2022-11-05T01:19:49.850Z,21.14
2022-11-05T01:22:16.147Z,21.15
2022-11-05T01:24:42.463Z,21.12
2022-11-05T01:27:08.772Z,21.10
2022-11-05T01:29:35.221Z,21.12
2022-11-05T01:32:01.559Z,21.13
2022-11-05T01:34:27.879Z,21.12
2022-11-05T01:36:54.200Z,21.13
2022-11-05T01:39:20.542Z,21.12
2022-11-05T01:41:46.893Z,21.12
2022-11-05T01:44:31.815Z,21.11
2022-11-05T01:46:58.129Z,21.12
2022-11-05T01:49:26.969Z,21.11
2022-11-05T01:51:53.285Z,21.09
2022-11-05T01:54:37.001Z,21.10
2022-11-05T02:00:23.386Z,21.09
2022-11-05T02:02:57.605Z,21.07
2022-11-05T02:05:27.046Z,21.09
2022-11-05T02:07:53.376Z,21.08
2022-11-05T02:10:19.946Z,21.10
2022-11-05T02:12:47.131Z,21.08
2022-11-05T02:15:17.440Z,21.07
2022-11-05T02:17:49.025Z,21.05
2022-11-05T02:20:22.584Z,21.05
2022-11-05T02:23:01.078Z,21.06
2022-11-05T02:25:32.218Z,21.05
2022-11-05T02:28:17.156Z,21.05
2022-11-05T02:30:50.580Z,21.05
2022-11-05T02:33:25.339Z,21.04
2022-11-05T02:35:58.721Z,21.02
2022-11-05T02:38:28.907Z,21.04
2022-11-05T02:41:14.111Z,21.04
2022-11-05T02:43:46.535Z,21.01
2022-11-05T02:46:32.510Z,21.01
2022-11-05T02:49:01.083Z,21.01
2022-11-05T02:51:31.397Z,21.01
2022-11-05T02:53:58.596Z,21.01
2022-11-05T02:56:34.916Z,20.99
2022-11-05T02:59:01.355Z,20.98
2022-11-05T03:01:27.767Z,20.99
2022-11-05T03:03:55.655Z,20.97
2022-11-05T03:06:29.081Z,20.96
2022-11-05T03:08:55.408Z,20.96
2022-11-05T03:11:22.418Z,20.96
2022-11-05T03:13:53.290Z,20.93
2022-11-05T03:16:26.856Z,20.95
2022-11-05T03:18:56.502Z,20.95
2022-11-05T03:21:24.355Z,20.93
2022-11-05T03:23:59.188Z,20.93
2022-11-05T03:26:26.327Z,20.93
2022-11-05T03:29:08.704Z,20.94
2022-11-05T03:31:35.050Z,20.93
2022-11-05T03:34:01.367Z,20.92
2022-11-05T03:36:30.738Z,20.90
2022-11-05T03:38:57.115Z,20.91
2022-11-05T03:41:23.434Z,20.90
2022-11-05T03:43:50.361Z,20.91
2022-11-05T03:46:24.831Z,20.92
2022-11-05T03:48:52.876Z,20.93
2022-11-05T03:51:29.073Z,20.97
2022-11-05T03:53:56.162Z,20.99
2022-11-05T03:56:30.669Z,21.00
2022-11-05T03:58:59.205Z,21.02
2022-11-05T04:01:25.743Z,21.03
2022-11-05T04:03:52.174Z,21.01
2022-11-05T04:06:37.140Z,21.02
2022-11-05T04:09:21.952Z,21.03
2022-11-05T04:12:06.635Z,21.04
2022-11-05T04:14:32.964Z,21.01
2022-11-05T04:17:09.500Z,21.01
2022-11-05T04:19:54.909Z,21.02
2022-11-05T04:22:40.304Z,21.06
2022-11-05T04:25:06.627Z,21.05
2022-11-05T04:27:32.963Z,21.06
2022-11-05T04:30:17.826Z,21.08
2022-11-05T04:33:02.842Z,21.08
2022-11-05T04:35:30.032Z,21.08
2022-11-05T04:37:56.360Z,21.08
2022-11-05T04:40:22.680Z,21.09
2022-11-05T04:42:49.009Z,21.09
2022-11-05T04:45:15.329Z,21.10
2022-11-05T04:47:41.675Z,21.10
2022-11-05T04:50:10.343Z,21.09
2022-11-05T04:52:36.651Z,21.10
2022-11-05T04:55:03.048Z,21.11
2022-11-05T04:57:29.396Z,21.12
2022-11-05T04:59:55.728Z,21.10
2022-11-05T05:02:22.113Z,21.13
2022-11-05T05:04:48.522Z,21.16
2022-11-05T05:07:14.836Z,21.15
2022-11-05T05:09:41.164Z,21.15
2022-11-05T05:12:07.937Z,21.13
2022-11-05T05:14:34.333Z,21.15
2022-11-05T05:17:00.644Z,21.16
2022-11-05T05:19:26.973Z,21.13
2022-11-05T05:21:53.292Z,21.13
2022-11-05T05:24:19.849Z,21.12
2022-11-05T05:26:46.854Z,21.12
2022-11-05T05:29:13.170Z,21.14
2022-11-05T05:31:39.505Z,21.15
2022-11-05T05:34:05.868Z,21.15
2022-11-05T05:36:32.194Z,21.16
2022-11-05T05:38:58.522Z,21.16
2022-11-05T05:41:24.827Z,21.18
2022-11-05T05:43:51.152Z,21.16
2022-11-05T05:46:17.652Z,21.18
2022-11-05T05:48:44.088Z,21.16
2022-11-05T05:51:10.753Z,21.18
2022-11-05T05:53:37.082Z,21.18
2022-11-05T05:56:03.505Z,21.18
2022-11-05T05:58:33.584Z,21.18
2022-11-05T06:01:00.257Z,21.20
2022-11-05T06:03:26.590Z,21.20
2022-11-05T06:05:52.901Z,21.21
2022-11-05T06:08:19.220Z,21.22
2022-11-05T06:10:51.733Z,21.22
2022-11-05T06:13:18.123Z,21.23
2022-11-05T06:15:44.445Z,21.21
2022-11-05T06:18:10.759Z,21.22
2022-11-05T06:20:37.078Z,21.22
2022-11-05T06:23:03.409Z,21.22
2022-11-05T06:25:29.733Z,21.22
2022-11-05T06:27:56.061Z,21.23
2022-11-05T06:30:23.673Z,21.22
2022-11-05T06:32:50.030Z,21.22
2022-11-05T06:35:16.379Z,21.21
2022-11-05T06:37:42.776Z,21.24
2022-11-05T06:40:09.124Z,21.25
2022-11-05T06:42:35.454Z,21.24
2022-11-05T06:45:01.787Z,21.26
2022-11-05T06:47:28.109Z,21.26
2022-11-05T06:49:54.416Z,21.24
2022-11-05T06:52:20.835Z,21.23
2022-11-05T06:54:47.162Z,21.23
2022-11-05T06:57:13.549Z,21.24
2022-11-05T06:59:39.866Z,21.24
2022-11-05T07:02:06.421Z,21.25
2022-11-05T07:04:32.808Z,21.25
2022-11-05T07:07:02.103Z,21.25
2022-11-05T07:09:28.748Z,21.26
2022-11-05T07:11:55.057Z,21.26
2022-11-05T07:14:21.367Z,21.26
2022-11-05T07:16:47.867Z,21.27
2022-11-05T07:19:14.237Z,21.27
2022-11-05T07:21:40.880Z,21.26
2022-11-05T07:24:07.372Z,21.26
2022-11-05T07:26:34.784Z,21.26
2022-11-05T07:29:01.196Z,21.27
2022-11-05T07:31:27.564Z,21.26
2022-11-05T07:33:53.889Z,21.27
2022-11-05T07:36:20.217Z,21.26
2022-11-05T07:38:46.538Z,21.29
2022-11-05T07:41:12.897Z,21.29
2022-11-05T07:43:39.225Z,21.29
2022-11-05T07:46:08.652Z,21.29
2022-11-05T07:48:39.025Z,21.30
2022-11-05T07:51:05.381Z,21.29
2022-11-05T07:53:31.704Z,21.29
2022-11-05T07:55:58.886Z,21.27
2022-11-05T07:58:25.207Z,21.28
2022-11-05T08:00:51.682Z,21.28
2022-11-05T08:03:18.758Z,21.28
2022-11-05T08:05:46.221Z,21.29
2022-11-05T08:08:16.336Z,21.30
2022-11-05T08:10:42.699Z,21.30
2022-11-05T08:13:09.233Z,21.30
2022-11-05T08:15:35.760Z,21.31
2022-11-05T08:18:03.184Z,21.31
2022-11-05T08:20:29.508Z,21.31
2022-11-05T08:22:56.115Z,21.32
2022-11-05T08:25:22.421Z,21.31
2022-11-05T08:27:49.943Z,21.31
2022-11-05T08:30:16.417Z,21.30
2022-11-05T08:32:42.733Z,21.30
2022-11-05T08:35:09.045Z,21.30
2022-11-05T08:37:35.368Z,21.30
2022-11-05T08:40:01.689Z,21.31
2022-11-05T08:42:28.005Z,21.30
2022-11-05T08:44:54.313Z,21.32
2022-11-05T08:47:20.636Z,21.34
2022-11-05T08:49:46.941Z,21.33
2022-11-05T08:52:13.279Z,21.33
2022-11-05T08:54:39.592Z,21.33
2022-11-05T08:57:05.899Z,21.33
2022-11-05T08:59:32.213Z,21.33
2022-11-05T09:01:58.659Z,21.33
2022-11-05T09:04:25.085Z,21.32
2022-11-05T09:06:51.409Z,21.33
2022-11-05T09:09:17.739Z,21.31
2022-11-05T09:12:10.601Z,21.30
2022-11-05T09:14:31.463Z,21.31
2022-11-05T09:16:57.787Z,21.30
2022-11-05T09:19:24.155Z,21.30
2022-11-05T09:21:50.463Z,21.30
2022-11-05T09:24:16.789Z,21.29
2022-11-05T09:26:43.123Z,21.30
2022-11-05T09:29:14.229Z,21.31
2022-11-05T09:31:40.871Z,21.32
2022-11-05T09:34:07.171Z,21.34
2022-11-05T09:36:33.489Z,21.34
2022-11-05T09:38:59.796Z,21.36
2022-11-05T09:41:28.214Z,21.36
2022-11-05T09:43:55.801Z,21.34
2022-11-05T09:46:23.277Z,21.34
2022-11-05T09:48:51.460Z,21.34
2022-11-05T09:51:23.464Z,21.34
2022-11-05T09:53:50.369Z,21.33
2022-11-05T09:56:23.937Z,21.33
2022-11-05T09:58:54.559Z,21.33
2022-11-05T10:01:25.494Z,21.33
2022-11-05T10:03:53.647Z,21.34
2022-11-05T10:06:21.034Z,21.36
2022-11-05T10:08:49.201Z,21.36
2022-11-05T10:11:20.419Z,21.37
2022-11-05T10:13:54.502Z,21.37
2022-11-05T10:16:25.336Z,21.38
2022-11-05T10:18:57.285Z,21.38
2022-11-05T10:21:44.301Z,21.38
2022-11-05T10:24:13.427Z,21.37
2022-11-05T10:26:40.770Z,21.36
2022-11-05T10:29:07.120Z,21.36
2022-11-05T10:31:35.654Z,21.33
2022-11-05T10:34:02.563Z,21.34
2022-11-05T10:36:29.980Z,21.34
2022-11-05T10:39:00.737Z,21.37
2022-11-05T10:41:33.180Z,21.36
2022-11-05T10:44:05.835Z,21.37
2022-11-05T10:46:38.178Z,21.38
2022-11-05T10:49:15.102Z,21.40
2022-11-05T10:51:41.953Z,21.38
2022-11-05T10:54:13.597Z,21.38
2022-11-05T10:56:40.262Z,21.38
2022-11-05T10:59:16.256Z,21.38
2022-11-05T11:01:42.670Z,21.38
2022-11-05T11:04:14.019Z,21.37
2022-11-05T11:06:43.223Z,21.39
2022-11-05T11:09:17.623Z,21.39
2022-11-05T11:11:43.969Z,21.40
2022-11-05T11:14:13.198Z,21.40
2022-11-05T11:16:46.537Z,21.39
2022-11-05T11:19:26.151Z,21.40
2022-11-05T11:22:11.234Z,21.40
2022-11-05T11:24:38.791Z,21.40
2022-11-05T11:27:05.636Z,21.40
2022-11-05T11:29:35.946Z,21.41
2022-11-05T11:32:02.282Z,21.40
2022-11-05T11:34:33.742Z,21.39
2022-11-05T11:37:05.106Z,21.40
2022-11-05T11:39:31.518Z,21.39
2022-11-05T11:41:59.153Z,21.38
2022-11-05T11:44:27.234Z,21.39
2022-11-05T11:46:54.997Z,21.38
2022-11-05T11:49:39.040Z,21.38
2022-11-05T11:52:08.893Z,21.38
2022-11-05T11:54:35.409Z,21.39
2022-11-05T11:57:01.797Z,21.41
2022-11-05T11:59:53.869Z,21.42
2022-11-05T12:02:29.091Z,21.43
2022-11-05T12:05:10.723Z,21.41
2022-11-05T12:07:39.950Z,21.43
2022-11-05T12:10:12.956Z,21.42
2022-11-05T12:12:39.195Z,21.42
2022-11-05T12:15:11.403Z,21.43
2022-11-05T12:17:57.900Z,21.41
2022-11-05T12:20:31.449Z,21.40
2022-11-05T12:23:11.359Z,21.41
2022-11-05T12:25:43.981Z,21.40
2022-11-05T12:28:13.479Z,21.39
2022-11-05T12:30:51.914Z,21.38
2022-11-05T12:33:20.348Z,21.39
2022-11-05T12:35:57.617Z,21.39
2022-11-05T12:38:39.742Z,21.39
2022-11-05T12:41:11.895Z,21.38
2022-11-05T12:43:41.968Z,21.37
2022-11-05T12:46:25.359Z,21.39
2022-11-05T12:48:51.600Z,21.38
2022-11-05T12:51:21.648Z,21.33
2022-11-05T12:53:51.026Z,21.33
2022-11-05T12:56:19.132Z,21.31
2022-11-05T12:58:46.924Z,21.33
2022-11-05T13:01:14.941Z,21.39
2022-11-05T13:03:47.844Z,21.40
2022-11-05T13:06:15.129Z,21.45
2022-11-05T13:08:43.871Z,21.45
2022-11-05T13:11:10.120Z,21.46
2022-11-05T13:13:38.420Z,21.47
2022-11-05T13:16:06.465Z,21.53
2022-11-05T13:18:42.093Z,21.52
2022-11-05T13:21:08.694Z,21.50
2022-11-05T13:23:39.835Z,21.53
2022-11-05T13:26:07.733Z,21.54
2022-11-05T13:28:39.458Z,21.56
2022-11-05T13:31:05.899Z,21.55
2022-11-05T13:33:33.335Z,21.56
2022-11-05T13:36:20.973Z,21.56
2022-11-05T13:39:00.540Z,21.56
2022-11-05T13:41:31.001Z,21.56
2022-11-05T13:44:15.359Z,21.56
2022-11-05T13:46:53.489Z,21.53
2022-11-05T13:49:38.553Z,21.56
2022-11-05T13:52:21.131Z,21.58
2022-11-05T13:55:06.221Z,21.44
2022-11-05T13:57:39.388Z,21.45
2022-11-05T14:00:06.980Z,21.50
2022-11-05T14:02:37.616Z,21.39
2022-11-05T14:05:04.014Z,21.34
2022-11-05T14:07:31.432Z,21.26
2022-11-05T14:10:01.381Z,21.24
2022-11-05T14:12:34.592Z,21.24
2022-11-05T14:15:02.400Z,21.24
2022-11-05T14:17:31.342Z,21.20
2022-11-05T14:20:06.848Z,21.19
2022-11-05T14:22:33.188Z,21.16
2022-11-05T14:24:59.789Z,21.16
2022-11-05T14:27:29.007Z,21.06
2022-11-05T14:29:55.431Z,20.99
2022-11-05T14:32:21.674Z,21.06
2022-11-05T14:34:54.213Z,21.05
2022-11-05T14:37:22.170Z,21.06
2022-11-05T14:39:48.499Z,21.04
2022-11-05T14:42:14.748Z,21.05
2022-11-05T14:44:57.329Z,21.02
2022-11-05T14:47:24.384Z,21.02
2022-11-05T14:49:52.897Z,21.06
2022-11-05T14:52:19.232Z,21.05
2022-11-05T14:54:49.168Z,21.13
2022-11-05T14:57:16.127Z,21.24
2022-11-05T14:59:48.123Z,21.27
2022-11-05T15:02:15.294Z,21.30
2022-11-05T15:04:49.243Z,21.30
2022-11-05T15:07:25.000Z,21.30
2022-11-05T15:09:53.949Z,21.29
2022-11-05T15:12:22.361Z,21.30
2022-11-05T15:14:58.541Z,21.30
2022-11-05T15:17:30.895Z,21.30
2022-11-05T15:20:17.713Z,21.30
2022-11-05T15:22:44.927Z,21.30
2022-11-05T15:25:17.727Z,21.31
2022-11-05T15:27:55.578Z,21.30
2022-11-05T15:30:22.242Z,21.30
2022-11-05T15:32:48.577Z,21.29
2022-11-05T15:35:18.887Z,21.29
2022-11-05T15:37:52.579Z,21.30
2022-11-05T15:40:22.289Z,21.30
2022-11-05T15:43:07.009Z,21.28
2022-11-05T15:45:33.348Z,21.28
2022-11-05T15:47:59.659Z,21.27
2022-11-05T15:50:25.958Z,21.28
2022-11-05T15:52:53.777Z,21.29
2022-11-05T15:55:23.521Z,21.28
2022-11-05T15:57:51.410Z,21.30
2022-11-05T16:00:21.629Z,21.30
2022-11-05T16:03:06.802Z,21.30
2022-11-05T16:05:33.740Z,21.30
2022-11-05T16:08:00.312Z,21.33
2022-11-05T16:10:28.869Z,21.32
2022-11-05T16:12:55.176Z,21.33
2022-11-05T16:15:22.528Z,21.36
2022-11-05T16:17:55.404Z,21.37
2022-11-05T16:20:28.944Z,21.38
2022-11-05T16:22:56.261Z,21.38
2022-11-05T16:25:31.014Z,21.38
2022-11-05T16:27:57.658Z,21.37
2022-11-05T16:30:24.065Z,21.36
2022-11-05T16:32:50.418Z,21.37
2022-11-05T16:35:20.411Z,21.38
2022-11-05T16:37:51.781Z,21.38
2022-11-05T16:40:22.423Z,21.39
2022-11-05T16:42:51.159Z,21.40
2022-11-05T16:45:18.210Z,21.40
2022-11-05T16:47:44.816Z,21.41
2022-11-05T16:50:14.982Z,21.42
2022-11-05T16:52:41.315Z,21.41
2022-11-05T16:55:08.291Z,21.42
2022-11-05T16:57:34.610Z,21.42
2022-11-05T17:00:00.915Z,21.42
2022-11-05T17:02:27.287Z,21.43
2022-11-05T17:04:53.774Z,21.42
2022-11-05T17:07:20.088Z,21.46
2022-11-05T17:09:46.407Z,21.49
2022-11-05T17:12:12.720Z,21.47
2022-11-05T17:14:39.031Z,21.44
2022-11-05T17:17:05.345Z,21.45
2022-11-05T17:19:31.665Z,21.45
2022-11-05T17:21:57.971Z,21.45
2022-11-05T17:24:24.285Z,21.47
2022-11-05T17:26:50.600Z,21.47
2022-11-05T17:29:16.904Z,21.47
2022-11-05T17:31:43.313Z,21.48
2022-11-05T17:34:09.624Z,21.47
2022-11-05T17:36:35.957Z,21.46
2022-11-05T17:39:02.273Z,21.47
2022-11-05T17:41:28.728Z,21.47
2022-11-05T17:43:56.059Z,21.46
2022-11-05T17:46:22.533Z,21.48
2022-11-05T17:48:48.841Z,21.48
2022-11-05T17:51:15.524Z,21.48
2022-11-05T17:53:41.856Z,21.49
2022-11-05T17:56:09.448Z,21.49
2022-11-05T17:58:35.765Z,21.50
2022-11-05T18:01:02.143Z,21.50
2022-11-05T18:03:28.485Z,21.49
2022-11-05T18:06:00.156Z,21.51
2022-11-05T18:08:26.516Z,21.52
2022-11-05T18:10:52.854Z,21.53
2022-11-05T18:13:19.159Z,21.50
2022-11-05T18:15:45.537Z,21.51
2022-11-05T18:18:11.903Z,21.51
2022-11-05T18:20:38.244Z,21.51
2022-11-05T18:23:04.587Z,21.52
2022-11-05T18:25:30.916Z,21.50
2022-11-05T18:27:57.241Z,21.51
2022-11-05T18:30:23.565Z,21.54
2022-11-05T18:32:50.967Z,21.54
2022-11-05T18:35:17.291Z,21.53
2022-11-05T18:37:43.670Z,21.50
2022-11-05T18:40:10.093Z,21.51
2022-11-05T18:42:36.415Z,21.50
2022-11-05T18:45:03.014Z,21.52
2022-11-05T18:47:29.636Z,21.53
2022-11-05T18:49:56.285Z,21.54
2022-11-05T18:52:22.663Z,21.54
2022-11-05T18:54:48.988Z,21.52
2022-11-05T18:57:15.315Z,21.55
2022-11-05T18:59:46.505Z,21.55
2022-11-05T19:02:12.958Z,21.56
2022-11-05T19:04:39.457Z,21.57
2022-11-05T19:07:06.153Z,21.57
2022-11-05T19:09:35.256Z,21.57
2022-11-05T19:12:01.828Z,21.55
2022-11-05T19:14:28.431Z,21.54
2022-11-05T19:16:54.768Z,21.54
2022-11-05T19:19:21.087Z,21.53
2022-11-05T19:21:47.403Z,21.55
2022-11-05T19:24:17.276Z,21.54
2022-11-05T19:26:43.810Z,21.56
2022-11-05T19:29:10.138Z,21.56
2022-11-05T19:31:36.868Z,21.57
2022-11-05T19:34:03.287Z,21.58
2022-11-05T19:36:30.038Z,21.58
2022-11-05T19:38:57.467Z,21.57
2022-11-05T19:41:23.913Z,21.58
2022-11-05T19:43:50.353Z,21.57
2022-11-05T19:46:17.741Z,21.57
2022-11-05T19:48:44.040Z,21.56
2022-11-05T19:51:11.399Z,21.56
2022-11-05T19:53:38.219Z,21.55
2022-11-05T19:56:07.998Z,21.58
2022-11-05T19:58:34.298Z,21.58
2022-11-05T20:01:00.638Z,21.59
2022-11-05T20:03:27.016Z,21.59
2022-11-05T20:05:53.349Z,21.59
2022-11-05T20:08:19.652Z,21.60
2022-11-05T20:10:46.298Z,21.59
2022-11-05T20:13:18.552Z,21.58
2022-11-05T20:15:46.590Z,21.60
2022-11-05T20:18:13.370Z,21.58
2022-11-05T20:20:39.955Z,21.58
2022-11-05T20:23:06.371Z,21.57
2022-11-05T20:25:32.860Z,21.59
2022-11-05T20:27:59.179Z,21.60
2022-11-05T20:30:25.500Z,21.61
2022-11-05T20:32:55.236Z,21.60
2022-11-05T20:35:21.638Z,21.62
2022-11-05T20:37:53.624Z,21.60
2022-11-05T20:40:20.365Z,21.61
2022-11-05T20:42:46.675Z,21.60
2022-11-05T20:45:13.022Z,21.59
2022-11-05T20:47:39.332Z,21.59
2022-11-05T20:50:05.965Z,21.60
2022-11-05T20:52:32.330Z,21.59
2022-11-05T20:54:58.644Z,21.60
2022-11-05T20:57:25.514Z,21.59
2022-11-05T20:59:51.839Z,21.62
2022-11-05T21:02:18.273Z,21.61
2022-11-05T21:04:44.717Z,21.64
2022-11-05T21:07:11.033Z,21.62
2022-11-05T21:09:37.357Z,21.63
2022-11-05T21:12:12.517Z,21.61
2022-11-05T21:14:39.076Z,21.61
2022-11-05T21:17:05.633Z,21.61
2022-11-05T21:19:32.065Z,21.60
2022-11-05T21:21:58.405Z,21.60
2022-11-05T21:24:24.717Z,21.59
2022-11-05T21:26:51.129Z,21.59
2022-11-05T21:29:17.436Z,21.59
2022-11-05T21:31:43.974Z,21.61
2022-11-05T21:34:10.369Z,21.60
2022-11-05T21:36:36.682Z,21.59
2022-11-05T21:39:02.992Z,21.59
2022-11-05T21:41:29.312Z,21.60
2022-11-05T21:43:55.634Z,21.61
2022-11-05T21:46:22.004Z,21.58
2022-11-05T21:48:48.319Z,21.60
2022-11-05T21:51:33.598Z,21.57
2022-11-05T21:54:18.441Z,21.57
2022-11-05T21:57:05.978Z,21.56
2022-11-05T21:59:48.268Z,21.59
2022-11-05T22:02:15.529Z,21.54
2022-11-05T22:04:43.812Z,21.53
2022-11-05T22:07:11.437Z,21.53
2022-11-05T22:09:37.757Z,21.57
2022-11-05T22:12:04.127Z,21.58
2022-11-05T22:14:30.734Z,21.57
2022-11-05T22:16:57.075Z,21.57
2022-11-05T22:19:23.395Z,21.54
2022-11-05T22:21:49.702Z,21.53
2022-11-05T22:24:16.014Z,21.54
2022-11-05T22:26:42.508Z,21.52
2022-11-05T22:29:08.812Z,21.51
2022-11-05T22:31:36.668Z,21.52
2022-11-05T22:34:03.484Z,21.50
2022-11-05T22:36:29.800Z,21.51
2022-11-05T22:38:56.112Z,21.49
2022-11-05T22:41:22.550Z,21.48
2022-11-05T22:43:48.867Z,21.48
2022-11-05T22:46:16.455Z,21.47
2022-11-05T22:48:42.854Z,21.46
2022-11-05T22:51:10.311Z,21.46
2022-11-05T22:53:36.663Z,21.46
2022-11-05T22:56:03.571Z,21.44
2022-11-05T22:58:29.902Z,21.43
2022-11-05T23:00:56.215Z,21.44
2022-11-05T23:03:22.759Z,21.43
2022-11-05T23:05:55.834Z,21.42
2022-11-05T23:08:40.746Z,21.41
2022-11-05T23:11:28.280Z,21.40
2022-11-05T23:13:55.849Z,21.41
2022-11-05T23:16:41.195Z,21.40
2022-11-05T23:19:27.074Z,21.38
2022-11-05T23:22:11.992Z,21.36
2022-11-05T23:24:38.322Z,21.38
2022-11-05T23:27:04.632Z,21.36
2022-11-05T23:29:30.948Z,21.33
2022-11-05T23:32:15.905Z,21.37
2022-11-05T23:34:42.216Z,21.37
2022-11-05T23:37:27.003Z,21.34
2022-11-05T23:39:53.435Z,21.36
2022-11-05T23:42:38.219Z,21.32
2022-11-05T23:45:23.571Z,21.34
2022-11-05T23:48:08.271Z,21.32
2022-11-05T23:50:39.566Z,21.30
2022-11-05T23:53:06.391Z,21.30
2022-11-05T23:55:32.718Z,21.29
2022-11-05T23:57:59.042Z,21.29
